Home > Products > Valid Products > TAF

000
FTUS45 KGJT 290530
TAFGJT
TAF
KGJT 290530Z 2906/3006 04005KT P6SM SKC
     FM290800 11005KT P6SM SCT200
     FM291400 13008KT P6SM SCT250
     FM291900 27004KT P6SM FEW100 SCT250
     FM292100 21010G18KT P6SM SCT100 SCT250
     FM300100 06009KT P6SM SCT250
     FM300500 11005KT P6SM SCT250=



000
FTUS45 KGJT 281723
TAFGJT
TAF
KGJT 281723Z 2818/2918 VRB03KT P6SM SCT100
     FM282000 28006KT P6SM SCT100 SCT250
     FM290200 03006KT P6SM SCT100 BKN250
     FM290600 11006KT P6SM FEW250=



000
FTUS45 KGJT 281124
TAFGJT
TAF
KGJT 281124Z 2812/2912 07007KT P6SM FEW250
     FM281500 14007KT P6SM SCT250
     FM282000 26004KT P6SM SCT120 SCT250
     FM282300 29008KT P6SM SCT100 SCT250
     FM290300 08006KT P6SM SCT250
     FM290600 11006KT P6SM SCT250=



000
FTUS45 KGJT 280204 AAB
TAFGJT
TAF AMD
KGJT 280204Z 2802/2824 30010G20KT P6SM VCSH SCT060 BKN080
     FM280400 13005KT P6SM SCT250
     FM281800 00000KT P6SM FEW110 SCT250=



000
FTUS45 KGJT 272341
TAFGJT
TAF
KGJT 272341Z 2800/2824 36009KT P6SM SCT110 BKN150
     FM280200 20004KT P6SM FEW110 SCT150
     FM280500 13005KT P6SM SCT250
     FM281800 00000KT P6SM FEW110 SCT250=



000
FTUS45 KGJT 270017 AAA
TAFGJT
TAF AMD
KGJT 270017Z 2700/2724 35009KT P6SM VCSH SCT070 BKN200
     FM270100 01006KT P6SM VCSH BKN110
     FM270900 12007KT P6SM SCT100 BKN150
     FM272100 28008KT P6SM SCT100 BKN150=



    US Dept of Commerce
    National Oceanic and Atmospheric Administration
    National Weather Service
    1325 East West Highway
    Silver Spring, MD 20910
    Page Author: NWS Internet Services Team
Disclaimer
Information Quality
Credits
Glossary
Privacy Policy
Freedom of Information Act (FOIA)
About Us
Career Opportunities